North Eastham, Massachusetts
Current Conditions -  °F | °C
As of 6:42 AM on Friday 24 Oct 2014 (Local Time) from KCQX Reporting Station
Light Rain Light Rain  
Wind Chill: 50°   Ceiling: 500
Heat Index: 50°   Visibility: 3mi
Dew Point: 50°   Wind: 13mph
Humidity: 100%   Direction: 330°NNW
Pressure: 29.6"   Gusts: 25mph
Location:  41.85°N, 70°W
Report Text: KCQX 241042Z AUTO 33011G22KT 3SM -RA BR OVC005 10/10 A2960 RMK AO2 P0002 T01000100
Loading
Personal Weather Stations






























Interactive Weather Map
Tropical Storm Tracking
New forecast layout! Learn more

10-Day Weather Forecast

Advertisements
Track Severe Weather on mobile